Time;durP1;ratioP1;P1;durP2;ratioP2;P2;SDS_P1;SDS_P2;PMS_P1;PMS_P2;Temp;Humidity;BMP_temperature;BMP_pressure;BME280_temperature;BME280_humidity;BME280_pressure;Samples;Min_cycle;Max_cycle;Signal;HPM_P1;HPM_P2
2021/12/18 00:02:17;;;;;;;37.73;27.40;;;8.00;99.90;;;;;;5048639;28;20162;-89
2021/12/18 00:04:43;;;;;;;42.17;28.37;;;8.10;99.90;;;;;;5049693;28;20181;-86
2021/12/18 00:07:08;;;;;;;36.07;25.40;;;8.00;99.90;;;;;;5045641;28;20170;-87
2021/12/18 00:09:34;;;;;;;39.83;28.07;;;7.90;99.90;;;;;;5045568;28;20216;-87
2021/12/18 00:12:01;;;;;;;42.67;31.50;;;7.90;99.90;;;;;;5045560;28;20217;-88
2021/12/18 00:14:28;;;;;;;40.17;28.17;;;7.90;99.90;;;;;;5046782;28;20281;-85
2021/12/18 00:16:53;;;;;;;40.30;28.00;;;8.00;99.90;;;;;;5040692;28;20174;-87
2021/12/18 00:19:26;;;;;;;38.00;26.93;;;8.00;99.90;;;;;;5036045;28;20680;-88
2021/12/18 00:21:53;;;;;;;42.80;29.83;;;7.90;99.90;;;;;;5037392;28;20174;-89
2021/12/18 00:24:19;;;;;;;42.80;30.00;;;7.90;99.90;;;;;;5038032;28;20221;-86
2021/12/18 00:26:47;;;;;;;43.13;29.00;;;7.90;99.90;;;;;;5037292;28;20201;-87
2021/12/18 00:29:13;;;;;;;41.03;29.17;;;7.80;99.90;;;;;;5042585;28;20208;-88
2021/12/18 00:31:39;;;;;;;45.47;29.93;;;7.80;99.90;;;;;;5038347;28;20205;-88
2021/12/18 00:34:04;;;;;;;44.30;29.57;;;7.80;99.90;;;;;;5035780;28;20265;-87
2021/12/18 00:36:31;;;;;;;44.07;29.87;;;7.80;99.90;;;;;;5036574;28;20158;-86
2021/12/18 00:38:57;;;;;;;43.77;30.47;;;7.80;99.90;;;;;;5037296;28;20248;-87
2021/12/18 00:41:59;;;;;;;43.20;29.73;;;7.80;99.90;;;;;;5036813;28;20198;-88
2021/12/18 00:44:16;;;;;;;46.60;30.73;;;7.70;99.90;;;;;;5036748;28;20185;-88
2021/12/18 00:46:46;;;;;;;48.90;34.27;;;7.70;99.90;;;;;;5048890;28;20169;-89
2021/12/18 00:49:18;;;;;;;43.80;31.47;;;7.80;99.90;;;;;;5065267;28;20180;-85
2021/12/18 00:51:47;;;;;;;47.33;32.13;;;7.90;99.90;;;;;;5061978;28;20627;-86
2021/12/18 00:54:12;;;;;;;50.47;32.83;;;7.80;99.90;;;;;;5059438;28;20608;-87
2021/12/18 00:56:38;;;;;;;50.33;32.83;;;7.90;99.90;;;;;;5063383;28;20185;-86
2021/12/18 00:59:04;;;;;;;52.43;33.90;;;7.90;99.90;;;;;;5059109;28;20170;-84
2021/12/18 01:01:31;;;;;;;54.23;35.17;;;7.90;99.90;;;;;;5058830;28;20166;-86
2021/12/18 01:03:57;;;;;;;54.90;35.97;;;7.90;99.90;;;;;;5062573;28;20220;-87
2021/12/18 01:06:28;;;;;;;52.43;35.47;;;7.90;99.90;;;;;;5061851;28;20560;-87
2021/12/18 01:08:56;;;;;;;50.87;33.00;;;7.90;99.90;;;;;;5060793;28;20181;-87
2021/12/18 01:16:40;;;;;;;55.97;34.90;;;8.00;99.90;;;;;;5064466;28;20176;-85
2021/12/18 01:25:23;;;;;;;54.67;36.13;;;8.10;99.90;;;;;;5049336;28;20180;-85
2021/12/18 01:27:48;;;;;;;57.40;35.60;;;7.90;99.90;;;;;;5080783;28;20180;-86
2021/12/18 01:30:19;;;;;;;56.40;36.17;;;7.90;99.90;;;;;;5080725;28;20188;-89
2021/12/18 01:32:45;;;;;;;58.50;38.53;;;7.90;99.90;;;;;;5080673;28;20158;-84
2021/12/18 01:35:11;;;;;;;57.67;37.07;;;7.90;99.90;;;;;;5080449;28;20193;-86
2021/12/18 01:37:41;;;;;;;58.17;38.33;;;7.90;99.90;;;;;;5059341;28;20181;-83
2021/12/18 01:40:11;;;;;;;54.50;35.87;;;7.90;99.90;;;;;;5063942;28;20169;-83
2021/12/18 01:43:24;;;;;;;61.40;38.27;;;7.90;99.90;;;;;;5069015;28;20169;-86
2021/12/18 01:45:48;;;;;;;63.70;39.67;;;7.90;99.90;;;;;;5045906;28;20177;-84
2021/12/18 01:51:25;;;;;;;64.63;36.53;;;8.00;99.90;;;;;;5043834;28;20751;-84
2021/12/18 01:53:54;;;;;;;58.87;37.17;;;8.00;99.90;;;;;;5060093;28;20201;-85
2021/12/18 01:56:21;;;;;;;60.77;36.20;;;8.00;99.90;;;;;;5059018;28;20181;-88
2021/12/18 01:58:49;;;;;;;58.20;39.17;;;8.00;99.90;;;;;;5056151;28;20534;-89
2021/12/18 02:01:16;;;;;;;60.67;38.90;;;7.90;99.90;;;;;;5058570;28;20264;-87
2021/12/18 02:03:42;;;;;;;58.63;38.10;;;7.90;99.90;;;;;;5057379;28;20201;-87
2021/12/18 02:06:08;;;;;;;58.83;37.03;;;8.00;99.90;;;;;;5059496;28;20198;-89
2021/12/18 02:08:36;;;;;;;63.93;39.17;;;8.00;99.90;;;;;;5059858;28;20161;-83
2021/12/18 02:21:47;;;;;;;58.03;38.40;;;7.90;99.90;;;;;;5049192;28;20173;-87
2021/12/18 02:24:14;;;;;;;62.67;39.77;;;8.00;99.90;;;;;;5053512;28;20185;-83
2021/12/18 02:26:40;;;;;;;64.53;41.47;;;8.00;99.90;;;;;;5037245;28;20158;-85
2021/12/18 02:29:08;;;;;;;62.77;38.83;;;8.00;99.90;;;;;;5052608;28;20548;-85
2021/12/18 02:31:33;;;;;;;61.53;39.20;;;7.80;99.90;;;;;;5052427;28;20249;-84
2021/12/18 02:33:59;;;;;;;61.73;37.43;;;8.10;99.90;;;;;;5052341;28;20193;-86
2021/12/18 02:36:25;;;;;;;63.77;39.37;;;8.20;99.90;;;;;;5052049;28;20212;-87
2021/12/18 02:42:21;;;;;;;65.27;41.53;;;8.10;99.90;;;;;;5075157;28;20207;-86
2021/12/18 02:44:54;;;;;;;62.20;41.53;;;8.30;99.90;;;;;;5059929;28;20213;-82
2021/12/18 02:47:20;;;;;;;59.80;40.33;;;8.30;99.90;;;;;;5076559;28;20211;-85
2021/12/18 02:49:50;;;;;;;60.17;39.90;;;8.20;99.90;;;;;;5070580;28;20178;-84
2021/12/18 02:52:44;;;;;;;63.70;40.00;;;8.30;99.90;;;;;;5068859;28;20237;-84
2021/12/18 02:55:13;;;;;;;65.33;40.17;;;8.10;99.90;;;;;;5061052;28;20265;-85
2021/12/18 02:57:39;;;;;;;61.93;38.63;;;8.10;99.90;;;;;;5059356;28;20252;-83
2021/12/18 03:00:06;;;;;;;62.63;39.97;;;8.00;99.90;;;;;;5061235;28;20658;-85
2021/12/18 03:02:38;;;;;;;64.23;40.00;;;8.00;99.90;;;;;;5061401;28;20709;-87
2021/12/18 03:05:08;;;;;;;61.07;39.57;;;8.20;99.90;;;;;;5052159;28;20181;-86
2021/12/18 03:07:34;;;;;;;60.27;38.50;;;8.10;99.90;;;;;;5035099;28;20174;-84
2021/12/18 03:22:08;;;;;;;64.17;40.20;;;8.20;99.90;;;;;;5042061;28;20192;-85
2021/12/18 03:23:47;;;;;;;57.33;35.43;;;8.10;99.90;;;;;;5042336;28;20174;-87
2021/12/18 03:26:14;;;;;;;59.87;39.13;;;8.00;99.90;;;;;;5044093;28;20173;-83
2021/12/18 03:28:42;;;;;;;56.17;36.13;;;8.00;99.90;;;;;;5062670;28;20251;-84
2021/12/18 03:31:09;;;;;;;59.17;38.53;;;7.90;99.90;;;;;;5039810;28;20210;-84
2021/12/18 03:33:35;;;;;;;60.30;38.67;;;7.90;99.90;;;;;;5051843;28;20178;-87
2021/12/18 03:36:01;;;;;;;53.60;34.93;;;8.00;99.90;;;;;;5035458;28;20177;-83
2021/12/18 03:38:27;;;;;;;57.17;35.17;;;8.00;99.90;;;;;;5051079;28;20181;-85
2021/12/18 03:40:52;;;;;;;58.87;35.27;;;8.00;99.90;;;;;;5034205;28;20217;-87
2021/12/18 03:43:19;;;;;;;55.20;34.53;;;7.90;99.90;;;;;;5034435;28;20173;-86
2021/12/18 03:45:45;;;;;;;54.83;36.17;;;8.00;99.90;;;;;;5051601;28;20181;-86
2021/12/18 03:48:10;;;;;;;57.43;32.97;;;7.90;99.90;;;;;;5051847;28;20165;-86
2021/12/18 03:50:36;;;;;;;52.50;34.60;;;7.80;99.90;;;;;;5051830;28;20205;-87
2021/12/18 03:53:06;;;;;;;54.13;32.23;;;7.80;99.90;;;;;;5061491;28;20196;-86
2021/12/18 03:55:32;;;;;;;54.77;36.30;;;7.80;99.90;;;;;;5074729;28;20240;-84
2021/12/18 03:57:58;;;;;;;49.30;33.43;;;7.80;99.90;;;;;;5074812;28;20181;-86
2021/12/18 04:00:27;;;;;;;52.33;35.67;;;7.80;99.90;;;;;;5060079;28;20174;-86
2021/12/18 04:02:56;;;;;;;54.03;33.70;;;7.80;99.90;;;;;;5052569;28;20154;-86
2021/12/18 04:05:23;;;;;;;52.90;35.20;;;8.00;99.90;;;;;;5039265;28;20355;-86
2021/12/18 04:07:50;;;;;;;53.70;35.43;;;7.80;99.90;;;;;;5058992;28;20169;-85
2021/12/18 04:10:17;;;;;;;50.83;35.20;;;7.90;99.90;;;;;;5044064;28;20205;-88
2021/12/18 04:12:46;;;;;;;57.43;36.07;;;8.00;99.90;;;;;;5058242;28;20153;-83
2021/12/18 04:15:15;;;;;;;49.57;31.47;;;8.00;99.90;;;;;;5074355;28;20245;-85
2021/12/18 04:17:41;;;;;;;49.23;31.63;;;8.00;99.90;;;;;;5074692;28;20165;-85
2021/12/18 04:20:13;;;;;;;46.43;29.37;;;7.90;99.90;;;;;;5074904;28;20212;-83
2021/12/18 04:22:42;;;;;;;49.73;32.23;;;8.00;99.90;;;;;;5074627;28;20176;-81
2021/12/18 04:25:34;;;;;;;47.40;31.63;;;7.90;99.90;;;;;;5074470;28;20162;-84
2021/12/18 04:28:22;;;;;;;47.77;30.07;;;7.90;99.90;;;;;;5059181;28;20188;-87
2021/12/18 04:34:17;;;;;;;47.07;30.60;;;7.90;99.90;;;;;;5036181;28;20216;-88
2021/12/18 04:36:46;;;;;;;51.87;33.17;;;7.80;99.90;;;;;;5051460;28;20268;-87
2021/12/18 04:39:12;;;;;;;48.27;33.13;;;7.90;99.90;;;;;;5063408;28;20169;-87
2021/12/18 04:41:50;;;;;;;46.10;30.97;;;7.90;99.90;;;;;;5073973;28;20160;-84
2021/12/18 04:44:17;;;;;;;47.93;31.07;;;7.90;99.90;;;;;;5074218;28;20181;-84
2021/12/18 04:46:44;;;;;;;48.43;31.33;;;8.00;99.90;;;;;;5071407;28;20181;-88
2021/12/18 04:49:34;;;;;;;44.80;30.03;;;8.00;99.90;;;;;;5051291;28;20174;-86
2021/12/18 04:52:05;;;;;;;48.57;32.50;;;8.00;99.90;;;;;;5051018;28;20216;-87
2021/12/18 04:54:31;;;;;;;47.10;29.77;;;7.90;99.90;;;;;;5050723;28;20193;-88
2021/12/18 04:56:58;;;;;;;56.43;33.43;;;8.10;99.90;;;;;;5034895;28;20625;-88
2021/12/18 04:59:24;;;;;;;53.60;32.83;;;7.90;99.90;;;;;;5035719;28;20221;-86
2021/12/18 05:01:51;;;;;;;54.63;35.03;;;8.00;99.90;;;;;;5052432;28;20190;-87
2021/12/18 05:04:18;;;;;;;56.43;36.70;;;7.90;99.90;;;;;;5054119;28;20157;-85
2021/12/18 05:06:46;;;;;;;57.70;35.67;;;7.80;99.90;;;;;;5073934;28;20193;-86
2021/12/18 05:09:13;;;;;;;60.67;39.20;;;7.80;99.90;;;;;;5066996;28;20269;-85
2021/12/18 05:11:40;;;;;;;60.07;38.23;;;7.80;99.90;;;;;;5048993;28;20233;-83
2021/12/18 05:14:07;;;;;;;64.20;39.20;;;7.90;99.90;;;;;;5064595;28;20196;-85
2021/12/18 05:16:33;;;;;;;58.83;38.33;;;7.90;99.90;;;;;;5052225;28;20530;-84
2021/12/18 05:18:58;;;;;;;63.20;39.63;;;7.90;99.90;;;;;;5052456;28;20174;-87
2021/12/18 05:21:24;;;;;;;65.03;39.87;;;8.00;99.90;;;;;;5052710;28;20177;-88
2021/12/18 05:23:50;;;;;;;62.47;39.93;;;8.20;99.90;;;;;;5050530;28;20174;-87
2021/12/18 05:26:30;;;;;;;61.80;38.97;;;8.10;99.90;;;;;;5049402;28;20182;-86
2021/12/18 05:28:59;;;;;;;64.37;38.40;;;8.10;99.90;;;;;;5032898;28;20637;-86
2021/12/18 05:31:25;;;;;;;63.77;38.33;;;8.10;99.90;;;;;;5049314;28;20206;-87
2021/12/18 05:33:57;;;;;;;63.50;35.43;;;8.10;99.90;;;;;;5051590;28;20227;-86
2021/12/18 05:37:11;;;;;;;61.53;36.57;;;8.00;99.90;;;;;;5053121;28;20185;-87
2021/12/18 05:39:11;;;;;;;63.07;36.53;;;8.10;99.90;;;;;;5039495;28;20526;-85
2021/12/18 05:41:37;;;;;;;64.50;36.70;;;8.00;99.90;;;;;;5036406;28;20174;-84
2021/12/18 05:44:04;;;;;;;66.07;37.27;;;8.00;99.90;;;;;;5036379;28;20574;-87
2021/12/18 05:46:31;;;;;;;65.03;37.20;;;7.90;99.90;;;;;;5037970;28;20185;-85
2021/12/18 05:48:57;;;;;;;64.00;36.00;;;7.80;99.90;;;;;;5068825;28;20264;-85
2021/12/18 05:51:23;;;;;;;69.67;37.97;;;7.80;99.90;;;;;;5041454;28;20232;-84
2021/12/18 05:53:48;;;;;;;71.53;39.70;;;7.90;99.90;;;;;;5036449;28;20244;-87
2021/12/18 05:56:14;;;;;;;64.10;36.77;;;7.90;99.90;;;;;;5037136;28;20197;-87
2021/12/18 05:58:44;;;;;;;66.30;36.43;;;7.90;99.90;;;;;;5046176;28;20208;-86
2021/12/18 06:01:11;;;;;;;69.57;38.37;;;8.00;99.90;;;;;;5051378;28;20166;-86
2021/12/18 06:03:37;;;;;;;67.63;36.40;;;7.90;99.90;;;;;;5059893;28;20231;-85
2021/12/18 06:06:03;;;;;;;67.27;35.57;;;7.90;99.90;;;;;;5060227;28;20177;-82
2021/12/18 06:08:35;;;;;;;70.20;39.00;;;7.90;99.90;;;;;;5059231;28;20192;-83
2021/12/18 06:11:20;;;;;;;74.70;40.30;;;7.90;99.90;;;;;;5051998;28;20296;-83
2021/12/18 06:13:49;;;;;;;72.27;38.10;;;7.90;99.90;;;;;;5044201;28;20197;-84
2021/12/18 06:16:19;;;;;;;76.07;39.07;;;7.90;99.90;;;;;;5036249;28;20208;-86
2021/12/18 06:18:50;;;;;;;69.20;36.13;;;7.90;99.90;;;;;;5038518;28;20181;-85
2021/12/18 06:21:17;;;;;;;71.77;39.03;;;7.90;99.90;;;;;;5040157;28;20356;-83
2021/12/18 06:23:49;;;;;;;73.33;37.63;;;8.00;99.90;;;;;;5037701;28;20185;-89
2021/12/18 06:26:16;;;;;;;71.57;38.47;;;8.10;99.90;;;;;;5041121;28;20166;-89
2021/12/18 06:28:42;;;;;;;75.73;39.33;;;8.00;99.90;;;;;;5059454;28;20162;-83
2021/12/18 06:31:08;;;;;;;74.43;40.60;;;8.00;99.90;;;;;;5059409;28;20212;-85
2021/12/18 06:33:33;;;;;;;73.67;38.90;;;8.00;99.90;;;;;;5059799;28;20229;-86
2021/12/18 06:36:27;;;;;;;71.67;38.73;;;8.00;99.90;;;;;;5060046;28;20176;-84
2021/12/18 06:38:53;;;;;;;66.70;36.17;;;8.10;99.90;;;;;;5044339;28;20538;-88
2021/12/18 06:41:53;;;;;;;66.97;35.40;;;8.00;99.90;;;;;;5039633;28;20189;-87
2021/12/18 06:44:21;;;;;;;74.17;38.03;;;7.90;99.90;;;;;;5037659;28;20185;-86
2021/12/18 06:46:47;;;;;;;71.30;37.10;;;7.90;99.90;;;;;;5045447;28;20174;-88
2021/12/18 06:49:13;;;;;;;73.40;36.10;;;8.00;99.90;;;;;;5050645;28;20173;-85
2021/12/18 06:51:44;;;;;;;73.27;37.93;;;7.90;99.90;;;;;;5059081;28;20197;-87
2021/12/18 06:54:10;;;;;;;72.40;38.63;;;7.90;99.90;;;;;;5059763;28;20181;-85
2021/12/18 06:56:39;;;;;;;68.03;33.53;;;7.90;99.90;;;;;;5055596;28;20184;-86
2021/12/18 06:59:07;;;;;;;70.10;35.63;;;7.80;99.90;;;;;;5047271;28;20177;-87
2021/12/18 07:01:33;;;;;;;79.20;40.83;;;7.80;99.90;;;;;;5039068;28;20195;-88
2021/12/18 07:03:59;;;;;;;77.70;39.33;;;8.00;99.90;;;;;;5036758;28;20669;-88
2021/12/18 07:06:24;;;;;;;76.30;38.63;;;7.90;99.90;;;;;;5036162;28;20265;-88
2021/12/18 07:08:52;;;;;;;80.37;37.33;;;7.90;99.90;;;;;;5036293;28;20174;-88
2021/12/18 07:11:18;;;;;;;79.57;38.70;;;7.90;99.90;;;;;;5046853;28;20209;-89
2021/12/18 07:13:44;;;;;;;79.87;41.53;;;7.90;99.90;;;;;;5057045;28;20184;-85
2021/12/18 07:16:12;;;;;;;79.70;40.30;;;8.00;99.90;;;;;;5058941;28;20162;-84
2021/12/18 07:18:38;;;;;;;78.63;39.57;;;8.00;99.90;;;;;;5057186;28;20268;-84
2021/12/18 07:21:04;;;;;;;86.60;41.97;;;8.10;99.90;;;;;;5048933;28;20170;-88
2021/12/18 07:23:32;;;;;;;75.27;40.73;;;8.10;99.90;;;;;;5037923;28;20169;-88
2021/12/18 07:25:59;;;;;;;76.23;38.27;;;8.20;99.90;;;;;;5037990;28;20173;-90
2021/12/18 07:28:26;;;;;;;82.00;39.80;;;8.10;99.90;;;;;;5037956;28;20204;-86
2021/12/18 07:30:53;;;;;;;73.57;39.07;;;8.10;99.90;;;;;;5037308;28;20217;-87
2021/12/18 07:33:19;;;;;;;68.47;36.30;;;8.10;99.90;;;;;;5035446;28;20174;-84
2021/12/18 07:35:45;;;;;;;72.20;37.87;;;8.00;99.90;;;;;;5040206;28;20181;-88
2021/12/18 07:38:11;;;;;;;69.17;34.40;;;8.00;99.90;;;;;;5044968;28;20170;-84
2021/12/18 07:40:38;;;;;;;68.23;33.73;;;7.90;99.90;;;;;;5057391;28;20193;-85
2021/12/18 07:43:04;;;;;;;76.33;38.23;;;7.90;99.90;;;;;;5056245;28;20186;-88
2021/12/18 07:45:33;;;;;;;76.87;37.97;;;8.00;99.90;;;;;;5050029;28;20198;-86
2021/12/18 07:48:00;;;;;;;80.53;38.50;;;7.90;99.90;;;;;;5034482;28;20297;-86
2021/12/18 07:50:25;;;;;;;84.27;39.97;;;7.90;99.90;;;;;;5037423;28;20650;-84
2021/12/18 07:52:51;;;;;;;78.10;39.30;;;7.90;99.90;;;;;;5050961;28;20180;-87
2021/12/18 07:55:17;;;;;;;80.37;40.00;;;8.00;99.90;;;;;;5050418;28;20208;-87
2021/12/18 07:57:43;;;;;;;92.07;40.03;;;8.00;99.90;;;;;;5050035;28;20193;-86
2021/12/18 08:00:14;;;;;;;82.40;41.30;;;8.20;99.90;;;;;;5034723;28;20190;-88
2021/12/18 08:02:40;;;;;;;89.43;40.97;;;7.90;99.90;;;;;;5050107;28;20525;-85
2021/12/18 08:05:07;;;;;;;83.63;41.07;;;8.10;99.90;;;;;;5033855;28;20637;-87
2021/12/18 08:07:35;;;;;;;78.10;38.93;;;8.20;99.90;;;;;;5053449;28;20180;-83
2021/12/18 08:10:03;;;;;;;77.40;38.07;;;8.00;99.90;;;;;;5053774;28;20174;-86
2021/12/18 08:12:29;;;;;;;87.07;41.00;;;8.10;99.90;;;;;;5053489;28;20197;-86
2021/12/18 08:14:56;;;;;;;88.90;41.47;;;8.20;99.90;;;;;;5054232;28;20200;-87
2021/12/18 08:17:23;;;;;;;73.07;36.83;;;8.30;99.90;;;;;;5038733;28;20292;-82
2021/12/18 08:19:49;;;;;;;77.27;36.90;;;8.30;99.90;;;;;;5054039;28;20204;-84
2021/12/18 08:22:16;;;;;;;75.77;38.27;;;8.20;99.90;;;;;;5053789;28;20184;-85
2021/12/18 08:24:41;;;;;;;77.33;37.87;;;8.10;99.90;;;;;;5038515;28;20208;-86
2021/12/18 08:27:08;;;;;;;77.63;38.73;;;8.00;99.90;;;;;;5055885;28;20174;-86
2021/12/18 08:29:34;;;;;;;84.77;40.13;;;8.00;99.90;;;;;;5058457;28;20197;-85
2021/12/18 08:32:00;;;;;;;80.30;38.07;;;8.10;99.90;;;;;;5041542;28;20217;-88
2021/12/18 08:34:26;;;;;;;82.03;39.57;;;8.00;99.90;;;;;;5041418;28;20174;-88
2021/12/18 08:36:55;;;;;;;87.83;41.80;;;8.00;99.90;;;;;;5042647;28;20272;-85
2021/12/18 08:39:22;;;;;;;84.70;41.63;;;8.10;99.90;;;;;;5044697;28;20180;-85
2021/12/18 08:41:49;;;;;;;98.53;44.20;;;8.00;99.90;;;;;;5050398;28;20186;-88
2021/12/18 08:44:16;;;;;;;91.53;41.50;;;8.10;99.90;;;;;;5072792;28;20169;-87
2021/12/18 08:46:45;;;;;;;88.73;40.30;;;8.10;99.90;;;;;;5056148;28;20185;-89
2021/12/18 08:49:14;;;;;;;77.20;35.33;;;8.10;99.90;;;;;;5048443;28;20169;-89
2021/12/18 08:51:41;;;;;;;86.37;39.67;;;8.00;99.90;;;;;;5042653;28;20213;-88
2021/12/18 08:54:18;;;;;;;87.50;38.57;;;8.00;99.90;;;;;;5043757;28;20727;-89
2021/12/18 08:56:46;;;;;;;85.07;39.40;;;8.10;99.90;;;;;;5058285;28;20203;-88
2021/12/18 08:59:12;;;;;;;85.27;40.27;;;8.00;99.90;;;;;;5042704;28;20169;-91
2021/12/18 09:01:38;;;;;;;90.60;41.87;;;8.10;99.90;;;;;;5037293;28;20180;-89
2021/12/18 09:04:06;;;;;;;86.53;37.20;;;8.00;99.90;;;;;;5036073;28;20170;-84
2021/12/18 09:06:32;;;;;;;77.23;33.27;;;8.00;99.90;;;;;;5040885;28;20250;-90
2021/12/18 09:08:58;;;;;;;71.57;32.57;;;8.00;99.90;;;;;;5045688;28;20158;-87
2021/12/18 09:11:26;;;;;;;69.30;29.03;;;8.00;99.90;;;;;;5041573;28;20217;-88
2021/12/18 09:13:52;;;;;;;65.43;28.53;;;8.00;99.90;;;;;;5040604;28;20382;-89
2021/12/18 09:16:18;;;;;;;66.67;30.43;;;8.00;99.90;;;;;;5040754;28;20237;-90
2021/12/18 09:18:44;;;;;;;66.67;29.00;;;8.00;99.90;;;;;;5040147;28;20200;-87
2021/12/18 09:21:10;;;;;;;67.53;29.77;;;8.20;99.90;;;;;;5044908;28;20269;-86
2021/12/18 09:23:37;;;;;;;60.13;26.07;;;8.30;99.90;;;;;;5056114;28;20173;-83
2021/12/18 09:26:04;;;;;;;57.77;26.67;;;8.10;99.90;;;;;;5060596;28;20177;-86
2021/12/18 09:28:29;;;;;;;62.00;28.10;;;8.10;99.90;;;;;;5060559;28;20165;-84
2021/12/18 09:30:58;;;;;;;66.30;29.23;;;8.20;99.90;;;;;;5060054;28;20293;-89
2021/12/18 09:33:27;;;;;;;66.67;30.20;;;8.10;99.90;;;;;;5060145;28;20217;-88
2021/12/18 09:36:22;;;;;;;70.50;31.17;;;8.20;99.90;;;;;;5054826;28;20243;-89
2021/12/18 09:39:39;;;;;;;70.93;31.17;;;8.20;99.90;;;;;;5061804;28;20161;-85
2021/12/18 09:42:07;;;;;;;72.13;30.83;;;8.40;99.90;;;;;;5060275;28;20197;-87
2021/12/18 09:44:51;;;;;;;63.87;28.83;;;8.40;99.90;;;;;;5060308;28;20170;-86
2021/12/18 09:47:20;;;;;;;60.70;27.47;;;8.40;99.90;;;;;;5060671;28;20157;-86
2021/12/18 09:53:11;;;;;;;58.40;26.80;;;8.20;99.90;;;;;;5057533;28;20262;-86
2021/12/18 09:55:37;;;;;;;59.40;26.10;;;8.20;99.90;;;;;;5051577;28;20212;-86
2021/12/18 09:58:03;;;;;;;51.90;23.80;;;8.20;99.90;;;;;;5047926;28;20192;-83
2021/12/18 10:00:29;;;;;;;54.13;25.23;;;8.10;99.90;;;;;;5029826;28;20181;-88
2021/12/18 10:02:56;;;;;;;54.67;24.50;;;8.10;99.90;;;;;;5047366;28;20170;-85
2021/12/18 10:05:32;;;;;;;50.83;24.57;;;8.10;99.90;;;;;;5045121;28;20181;-83
2021/12/18 10:08:11;;;;;;;51.43;23.30;;;8.20;99.90;;;;;;5046088;28;20636;-85
2021/12/18 10:10:56;;;;;;;44.93;21.37;;;8.10;99.90;;;;;;5055197;28;20197;-86
2021/12/18 10:13:21;;;;;;;52.27;22.23;;;8.10;99.90;;;;;;5058783;28;20232;-86
2021/12/18 10:16:07;;;;;;;43.70;21.23;;;8.20;99.90;;;;;;5040648;28;20186;-85
2021/12/18 10:18:33;;;;;;;47.30;22.13;;;8.20;99.90;;;;;;5053752;28;20209;-85
2021/12/18 10:21:13;;;;;;;52.77;24.73;;;8.20;99.90;;;;;;5054657;28;20189;-89
2021/12/18 10:24:20;;;;;;;43.67;22.20;;;8.20;99.90;;;;;;5028550;28;20178;-89
2021/12/18 10:26:46;;;;;;;52.37;23.10;;;8.20;99.90;;;;;;5038807;28;20166;-90
2021/12/18 10:29:34;;;;;;;50.90;23.50;;;8.20;99.90;;;;;;5057502;28;20181;-86
2021/12/18 10:32:10;;;;;;;49.70;23.80;;;8.20;99.90;;;;;;5054793;28;20209;-89
2021/12/18 10:35:26;;;;;;;56.30;23.90;;;8.20;99.90;;;;;;5041300;28;20181;-85
2021/12/18 10:37:51;;;;;;;52.17;20.67;;;8.10;99.90;;;;;;5042231;28;20341;-92
2021/12/18 10:40:19;;;;;;;53.13;23.90;;;8.10;99.90;;;;;;5041750;28;20154;-88
2021/12/18 10:42:46;;;;;;;62.07;25.50;;;7.90;99.90;;;;;;5039150;28;20174;-90
2021/12/18 10:45:21;;;;;;;52.70;24.97;;;8.00;99.90;;;;;;5039331;28;20200;-92
2021/12/18 10:47:58;;;;;;;48.73;23.93;;;8.00;99.90;;;;;;5039865;28;20177;-90
2021/12/18 10:50:39;;;;;;;51.20;24.13;;;8.00;99.90;;;;;;5042002;28;20205;-89
2021/12/18 10:53:18;;;;;;;48.47;24.30;;;8.00;99.90;;;;;;5038779;28;20256;-87
2021/12/18 10:55:48;;;;;;;61.13;26.37;;;7.90;99.90;;;;;;5038408;28;20244;-89
2021/12/18 10:58:28;;;;;;;55.43;26.60;;;7.90;99.90;;;;;;5039679;28;20169;-89
2021/12/18 11:01:15;;;;;;;51.27;24.33;;;8.00;99.90;;;;;;5040334;28;20165;-91
2021/12/18 11:03:47;;;;;;;56.33;25.37;;;7.90;99.90;;;;;;5038770;28;20188;-88
2021/12/18 11:06:31;;;;;;;58.53;27.27;;;8.00;99.90;;;;;;5039912;28;20173;-87
2021/12/18 11:09:13;;;;;;;61.67;26.83;;;8.10;99.90;;;;;;5045886;28;20177;-85
2021/12/18 11:14:39;;;;;;;64.17;29.53;;;8.10;99.90;;;;;;5056746;28;20182;-88
2021/12/18 11:17:07;;;;;;;68.43;30.90;;;8.40;99.90;;;;;;5056992;28;20168;-84
2021/12/18 11:19:35;;;;;;;54.23;26.33;;;8.30;99.90;;;;;;5057606;28;20241;-86
2021/12/18 11:22:11;;;;;;;54.43;25.73;;;8.20;99.90;;;;;;5058563;28;20166;-88
2021/12/18 11:24:45;;;;;;;57.03;27.03;;;8.10;99.90;;;;;;5042610;28;20219;-88
2021/12/18 11:27:14;;;;;;;53.83;27.27;;;8.10;99.90;;;;;;5058071;28;20162;-86
2021/12/18 11:30:13;;;;;;;59.93;29.40;;;8.20;99.90;;;;;;5058345;28;20185;-85
2021/12/18 11:32:54;;;;;;;58.70;29.63;;;8.20;99.90;;;;;;5058105;28;20181;-86
2021/12/18 11:35:23;;;;;;;61.47;29.83;;;8.30;99.90;;;;;;5059173;28;20165;-86
2021/12/18 11:37:59;;;;;;;63.97;30.60;;;8.30;99.90;;;;;;5041635;28;20200;-87
2021/12/18 11:40:29;;;;;;;57.53;28.63;;;8.40;99.90;;;;;;5058224;28;20168;-85
2021/12/18 11:42:57;;;;;;;61.47;29.83;;;8.40;99.90;;;;;;5042375;28;20545;-87
2021/12/18 11:45:42;;;;;;;58.13;30.00;;;8.50;99.90;;;;;;5058308;28;20245;-88
2021/12/18 11:48:09;;;;;;;54.57;27.40;;;8.70;99.90;;;;;;5058306;28;20166;-87
2021/12/18 11:50:38;;;;;;;51.73;26.43;;;8.40;99.90;;;;;;5058055;28;20211;-88
2021/12/18 11:53:11;;;;;;;56.00;28.27;;;8.50;99.90;;;;;;5056363;28;20232;-84
2021/12/18 11:55:48;;;;;;;58.77;31.07;;;8.40;99.90;;;;;;5057584;28;20203;-86
2021/12/18 11:58:20;;;;;;;60.97;29.57;;;8.40;99.90;;;;;;5056402;28;20182;-86
2021/12/18 12:00:51;;;;;;;61.87;28.50;;;8.40;99.90;;;;;;5056789;28;20199;-84
2021/12/18 12:03:38;;;;;;;55.10;28.37;;;8.50;99.90;;;;;;5057209;28;20169;-86
2021/12/18 12:06:20;;;;;;;51.03;27.10;;;8.60;99.90;;;;;;5057005;28;20196;-83
2021/12/18 12:08:50;;;;;;;50.03;25.83;;;8.60;99.90;;;;;;5056973;28;20173;-82
2021/12/18 12:11:21;;;;;;;43.67;23.97;;;8.50;99.90;;;;;;5057319;28;20223;-85
2021/12/18 12:13:57;;;;;;;45.80;25.23;;;8.50;99.90;;;;;;5057247;28;20177;-85
2021/12/18 12:16:47;;;;;;;45.53;25.73;;;8.50;99.90;;;;;;5056903;28;20181;-85
2021/12/18 12:19:19;;;;;;;44.50;24.83;;;8.50;99.90;;;;;;5057980;28;20177;-86
2021/12/18 12:21:56;;;;;;;46.27;23.13;;;8.50;99.90;;;;;;5058312;28;20156;-85
2021/12/18 12:24:51;;;;;;;46.90;25.57;;;8.40;99.90;;;;;;5057191;28;20236;-86
2021/12/18 12:27:32;;;;;;;46.60;23.60;;;8.40;99.90;;;;;;5040360;28;20168;-88
2021/12/18 12:30:05;;;;;;;50.13;25.40;;;8.40;99.90;;;;;;5056859;28;20268;-86
2021/12/18 12:32:33;;;;;;;43.73;23.70;;;8.40;99.90;;;;;;5057514;28;20272;-87
2021/12/18 12:35:03;;;;;;;46.33;24.27;;;8.40;99.90;;;;;;5057620;28;20179;-87
2021/12/18 12:37:34;;;;;;;50.83;25.17;;;8.50;99.90;;;;;;5056884;28;20189;-85
2021/12/18 12:40:06;;;;;;;42.70;21.40;;;8.60;99.90;;;;;;5058003;28;20189;-85
2021/12/18 12:42:34;;;;;;;44.00;22.37;;;8.50;99.90;;;;;;5056620;28;20241;-86
2021/12/18 12:45:10;;;;;;;52.40;23.93;;;8.70;99.90;;;;;;5041039;28;20188;-85
2021/12/18 12:47:37;;;;;;;46.77;22.10;;;8.50;99.90;;;;;;5042006;28;20173;-84
2021/12/18 12:50:09;;;;;;;43.10;22.80;;;8.40;99.90;;;;;;5057539;28;20219;-91
2021/12/18 12:52:52;;;;;;;45.50;22.90;;;8.40;99.90;;;;;;5056944;28;20169;-83
2021/12/18 12:55:22;;;;;;;44.87;23.13;;;8.40;99.90;;;;;;5055584;28;20197;-87
2021/12/18 13:01:09;;;;;;;41.03;21.03;;;8.50;99.90;;;;;;5056310;28;20241;-85
2021/12/18 13:03:55;;;;;;;55.77;24.93;;;8.70;99.90;;;;;;5055918;28;20188;-84
2021/12/18 13:06:34;;;;;;;50.10;23.67;;;8.50;99.90;;;;;;5055444;28;20162;-86
2021/12/18 13:09:02;;;;;;;57.10;24.73;;;8.50;99.90;;;;;;5056060;28;20166;-87
2021/12/18 13:11:33;;;;;;;60.43;27.73;;;8.50;99.90;;;;;;5053729;28;20227;-84
2021/12/18 13:14:00;;;;;;;64.50;28.43;;;8.50;99.90;;;;;;5051174;28;20220;-85
2021/12/18 13:16:29;;;;;;;64.77;27.73;;;8.60;99.90;;;;;;5051580;28;20181;-84
2021/12/18 13:18:58;;;;;;;66.50;28.93;;;8.60;99.90;;;;;;5051177;28;20185;-87
2021/12/18 13:21:33;;;;;;;68.30;28.27;;;8.60;99.90;;;;;;5044205;28;20182;-88
2021/12/18 13:24:15;;;;;;;60.53;25.53;;;8.60;99.90;;;;;;5049009;28;20161;-88
2021/12/18 13:26:45;;;;;;;55.43;23.33;;;8.60;99.90;;;;;;5052298;28;20162;-86
2021/12/18 13:29:15;;;;;;;55.07;22.83;;;8.60;99.90;;;;;;5052593;28;20202;-85
2021/12/18 13:31:54;;;;;;;53.97;21.47;;;8.60;99.90;;;;;;5056192;28;20208;-86
2021/12/18 13:34:31;;;;;;;49.27;20.83;;;8.40;99.90;;;;;;5053378;28;20177;-85
2021/12/18 13:37:05;;;;;;;49.13;21.17;;;8.30;99.90;;;;;;5055410;28;20174;-85
2021/12/18 13:39:43;;;;;;;46.40;20.43;;;8.20;99.90;;;;;;5037546;28;20213;-85
2021/12/18 13:42:33;;;;;;;46.73;19.77;;;8.20;99.90;;;;;;5056108;28;20169;-86
2021/12/18 13:45:01;;;;;;;42.53;17.30;;;8.10;99.90;;;;;;5054654;28;20181;-86
2021/12/18 13:47:41;;;;;;;39.43;17.60;;;8.00;99.90;;;;;;5055674;28;20181;-84